Decoded Metar for LHBP (BUDAPEST in HUNGARY) (IATA:BUD) | Meteo·Mobile Aviation Weather
aviador You're here:

LHBP Decoded Metar

BUDAPEST in HUNGARY
Report Time2019-07-16 09:30:00
UTC Time2019-07-16 10:03:29
Flight Rules vfr VFR
Wind340° at 04 kt
W.Decomp.*RWY 31: 3.6 kt HW 1.8 kt RCW
Visibility9999 m
Phenomena:N/A
Clouds:N/A
Expected CloudBase > 6,400 ft AGL from Temp-Dew spread
CeilingNone
Temp24°C (ISA +10)
Dew Point08°C (36% RH)
AAT22.1°C
QNH1013 hPa
Density Alt1,939 ft
Elevation607 ft
Report Wrong Elevation
Raw Report
LHBP 160930Z 34004KT CAVOK 24/08 Q1013 NOSIG=

Extra information for LHBP:More info

Metar Taf Metar & Taf Last 4 Metars F.Rules Stats Wind Profile Meteogram Temp Stats Airport Information Weather charts Add Link Nearby VenuesMetar ALERT Operation Metar Decoded Social comments